Time;durP1;ratioP1;P1;durP2;ratioP2;P2;SDS_P1;SDS_P2;PMS_P1;PMS_P2;Temp;Humidity;BMP_temperature;BMP_pressure;BME280_temperature;BME280_humidity;BME280_pressure;Samples;Min_cycle;Max_cycle;Signal;HPM_P1;HPM_P2
2022/04/29 00:00:41;;;;;;;5.90;2.72;;;7.50;82.90;;;;;;5034934;28;20454;-46
2022/04/29 00:03:09;;;;;;;9.25;4.45;;;7.40;83.00;;;;;;5034804;28;20132;-47
2022/04/29 00:05:38;;;;;;;15.23;4.07;;;7.50;83.00;;;;;;5037949;28;20036;-47
2022/04/29 00:08:05;;;;;;;6.78;2.88;;;7.50;82.90;;;;;;5047672;28;20026;-44
2022/04/29 00:10:34;;;;;;;8.88;3.47;;;7.40;83.10;;;;;;5042537;28;20442;-46
2022/04/29 00:13:06;;;;;;;10.38;2.55;;;7.50;83.00;;;;;;5052166;28;20130;-45
2022/04/29 00:15:33;;;;;;;10.88;3.45;;;7.50;83.00;;;;;;5048656;28;20044;-44
2022/04/29 00:18:00;;;;;;;9.48;3.53;;;7.50;82.80;;;;;;5050308;28;20083;-44
2022/04/29 00:20:27;;;;;;;6.32;3.17;;;7.40;82.90;;;;;;5068463;28;20028;-45
2022/04/29 00:22:54;;;;;;;5.10;2.78;;;7.40;83.00;;;;;;5053663;28;20036;-45
2022/04/29 00:25:20;;;;;;;11.38;4.20;;;7.40;82.90;;;;;;5052124;28;20703;-45
2022/04/29 00:27:47;;;;;;;8.95;3.58;;;7.50;82.80;;;;;;5053508;28;20358;-46
2022/04/29 00:30:17;;;;;;;10.75;4.15;;;7.50;82.90;;;;;;5053217;28;20354;-45
2022/04/29 00:32:43;;;;;;;10.18;5.38;;;7.50;82.90;;;;;;5052158;28;20024;-44
2022/04/29 00:35:10;;;;;;;8.75;4.85;;;7.40;83.00;;;;;;5051822;28;20025;-45
2022/04/29 00:37:56;;;;;;;12.32;4.35;;;7.40;83.00;;;;;;5052661;28;20044;-45
2022/04/29 00:40:25;;;;;;;9.75;4.57;;;7.40;83.10;;;;;;5051013;28;20048;-43
2022/04/29 00:42:52;;;;;;;6.72;4.13;;;7.40;83.20;;;;;;5053195;28;20021;-45
2022/04/29 00:45:21;;;;;;;9.55;4.18;;;7.40;83.30;;;;;;5052148;28;20709;-45
2022/04/29 00:47:50;;;;;;;8.70;4.10;;;7.50;83.10;;;;;;5030062;28;20439;-44
2022/04/29 00:50:21;;;;;;;12.27;4.30;;;7.50;82.90;;;;;;5032710;28;20124;-45
2022/04/29 00:52:51;;;;;;;11.18;4.10;;;7.40;82.90;;;;;;5053937;28;20033;-45
2022/04/29 00:55:20;;;;;;;9.52;4.20;;;7.50;83.10;;;;;;5052926;28;20033;-47
2022/04/29 00:58:07;;;;;;;9.80;5.45;;;7.40;83.20;;;;;;5052278;28;20040;-48
2022/04/29 01:00:35;;;;;;;10.15;4.03;;;7.40;83.00;;;;;;5050231;28;20374;-47
2022/04/29 01:03:04;;;;;;;7.60;3.67;;;7.40;82.90;;;;;;5051460;28;20821;-45
2022/04/29 01:05:33;;;;;;;13.07;6.18;;;7.40;83.20;;;;;;5033352;28;20083;-47
2022/04/29 01:08:03;;;;;;;8.15;4.10;;;7.40;83.20;;;;;;5053944;28;20064;-45
2022/04/29 01:10:34;;;;;;;;;;;7.40;83.20;;;;;;5045337;28;20021;-47
2022/04/29 01:13:02;;;;;;;6.00;3.45;;;7.40;83.20;;;;;;5035503;28;19913;-47
2022/04/29 01:15:31;;;;;;;11.45;3.38;;;7.40;83.20;;;;;;5068382;28;20150;-47
2022/04/29 01:18:03;;;;;;;11.50;3.57;;;7.40;83.20;;;;;;5042465;28;20112;-44
2022/04/29 01:20:32;;;;;;;7.95;2.85;;;7.40;83.20;;;;;;5051067;28;20287;-46
2022/04/29 01:23:08;;;;;;;7.45;2.90;;;7.40;83.20;;;;;;5053653;28;20029;-44
2022/04/29 01:25:35;;;;;;;4.55;2.70;;;7.40;83.20;;;;;;5049230;28;20037;-44
2022/04/29 01:28:03;;;;;;;11.07;2.90;;;7.40;83.30;;;;;;5051958;28;20032;-45
2022/04/29 01:30:32;;;;;;;6.45;3.30;;;7.40;83.10;;;;;;5052885;28;20047;-46
2022/04/29 01:33:00;;;;;;;6.43;3.10;;;7.40;83.20;;;;;;5051685;28;20036;-47
2022/04/29 01:35:27;;;;;;;7.68;2.97;;;7.30;83.00;;;;;;5052510;28;20040;-44
2022/04/29 01:37:57;;;;;;;13.18;3.95;;;7.20;83.20;;;;;;5052044;28;20098;-45
2022/04/29 01:40:23;;;;;;;5.00;3.08;;;7.20;83.10;;;;;;5052764;28;20159;-47
2022/04/29 01:42:50;;;;;;;8.98;3.22;;;7.20;83.30;;;;;;5033250;28;20037;-45
2022/04/29 01:45:17;;;;;;;6.03;2.92;;;7.20;83.30;;;;;;5033723;28;20067;-46
2022/04/29 01:47:44;;;;;;;16.38;3.90;;;7.20;83.30;;;;;;5051542;28;20033;-49
2022/04/29 01:50:12;;;;;;;7.03;2.95;;;7.20;83.20;;;;;;5032311;28;20432;-45
2022/04/29 01:52:41;;;;;;;7.07;2.80;;;7.20;83.10;;;;;;5053221;28;20067;-46
2022/04/29 01:55:08;;;;;;;7.97;3.70;;;7.10;83.30;;;;;;5033098;28;20056;-45
2022/04/29 01:57:37;;;;;;;8.80;3.20;;;7.10;83.30;;;;;;5052825;28;20029;-44
2022/04/29 02:00:05;;;;;;;8.18;2.92;;;7.10;83.30;;;;;;5045029;28;20048;-49
2022/04/29 02:02:32;;;;;;;7.50;2.95;;;7.00;83.40;;;;;;5037543;28;20355;-46
2022/04/29 02:05:01;;;;;;;6.55;3.50;;;6.90;83.40;;;;;;5048572;28;20033;-46
2022/04/29 02:07:26;;;;;;;4.43;2.88;;;6.90;83.60;;;;;;5052050;28;20041;-46
2022/04/29 02:09:56;;;;;;;7.53;2.95;;;6.90;83.50;;;;;;5050556;28;20033;-44
2022/04/29 02:12:23;;;;;;;9.70;2.97;;;6.90;83.50;;;;;;5033943;28;20037;-44
2022/04/29 02:14:52;;;;;;;8.80;2.80;;;6.90;83.60;;;;;;5049423;28;20032;-48
2022/04/29 02:17:19;;;;;;;10.27;2.85;;;6.80;83.70;;;;;;5050282;28;20025;-46
2022/04/29 02:19:46;;;;;;;9.60;2.45;;;6.80;83.70;;;;;;5048909;28;20033;-46
2022/04/29 02:22:13;;;;;;;12.23;2.92;;;6.80;83.70;;;;;;5033124;28;20040;-44
2022/04/29 02:24:44;;;;;;;7.15;2.63;;;6.80;83.80;;;;;;5048518;28;20055;-45
2022/04/29 02:27:14;;;;;;;5.80;2.65;;;6.80;83.90;;;;;;5034275;28;20043;-47
2022/04/29 02:29:41;;;;;;;7.13;2.90;;;6.80;83.90;;;;;;5050342;28;20039;-45
2022/04/29 02:32:10;;;;;;;8.63;4.15;;;6.80;84.10;;;;;;5050473;28;20029;-47
2022/04/29 02:34:38;;;;;;;5.68;2.88;;;6.80;83.90;;;;;;5051435;28;20017;-46
2022/04/29 02:37:03;;;;;;;13.13;2.92;;;6.80;83.90;;;;;;5051363;28;20032;-45
2022/04/29 02:39:31;;;;;;;10.82;3.60;;;6.80;83.90;;;;;;5050962;28;20028;-43
2022/04/29 02:41:57;;;;;;;9.38;2.92;;;6.80;84.00;;;;;;5033756;28;20033;-48
2022/04/29 02:44:28;;;;;;;8.73;3.45;;;6.90;84.00;;;;;;5051342;28;20040;-45
2022/04/29 02:47:07;;;;;;;10.90;2.70;;;6.90;83.80;;;;;;5051604;28;20025;-48
2022/04/29 02:49:34;;;;;;;6.50;3.28;;;6.90;83.70;;;;;;5033847;28;20366;-45
2022/04/29 02:52:01;;;;;;;6.25;2.80;;;6.90;83.80;;;;;;5045403;28;20046;-45
2022/04/29 02:54:27;;;;;;;5.13;2.67;;;6.90;83.80;;;;;;5044971;28;20596;-46
2022/04/29 02:56:53;;;;;;;8.77;2.55;;;6.90;84.00;;;;;;5012743;28;20030;-44
2022/04/29 02:59:21;;;;;;;8.48;2.75;;;6.90;83.80;;;;;;5044746;28;20727;-47
2022/04/29 03:01:50;;;;;;;7.43;2.40;;;6.90;83.90;;;;;;5015522;28;20026;-46
2022/04/29 03:04:17;;;;;;;8.13;3.10;;;6.90;83.90;;;;;;5012348;28;20030;-46
2022/04/29 03:06:44;;;;;;;6.32;2.70;;;6.90;83.80;;;;;;5012043;28;20092;-45
2022/04/29 03:09:11;;;;;;;6.85;3.00;;;7.00;83.70;;;;;;5011736;28;20049;-47
2022/04/29 03:11:38;;;;;;;6.07;2.78;;;7.00;83.60;;;;;;5012255;28;20030;-44
2022/04/29 03:14:07;;;;;;;8.63;3.47;;;7.00;83.40;;;;;;5011456;28;20030;-44
2022/04/29 03:16:34;;;;;;;6.75;3.88;;;7.00;83.50;;;;;;5011462;28;20108;-44
2022/04/29 03:19:01;;;;;;;13.85;4.90;;;6.90;83.50;;;;;;5014385;28;20048;-48
2022/04/29 03:21:28;;;;;;;10.90;3.90;;;6.90;83.30;;;;;;5028877;28;20470;-50
2022/04/29 03:23:55;;;;;;;8.02;3.72;;;6.90;83.40;;;;;;5005076;28;20446;-47
2022/04/29 03:26:21;;;;;;;6.72;3.42;;;6.90;83.50;;;;;;5015385;28;20056;-47
2022/04/29 03:28:48;;;;;;;5.93;3.25;;;7.00;83.40;;;;;;5015595;28;20033;-45
2022/04/29 03:31:18;;;;;;;10.00;3.90;;;7.00;83.40;;;;;;5015830;28;20026;-49
2022/04/29 03:33:45;;;;;;;;;;;7.00;83.30;;;;;;5016426;28;20088;-45
2022/04/29 03:36:11;;;;;;;10.18;4.18;;;7.00;83.20;;;;;;5015548;28;19956;-49
2022/04/29 03:38:38;;;;;;;9.02;3.97;;;6.90;83.30;;;;;;5014425;28;20038;-47
2022/04/29 03:41:08;;;;;;;15.45;4.68;;;6.90;83.40;;;;;;5015105;28;20092;-46
2022/04/29 03:43:34;;;;;;;10.70;4.53;;;7.00;83.50;;;;;;5015570;28;20101;-46
2022/04/29 03:46:01;;;;;;;11.80;4.38;;;7.00;83.30;;;;;;5045671;28;20521;-44
2022/04/29 03:51:15;;;;;;;12.18;4.68;;;7.00;83.30;;;;;;5034140;28;20063;-46
2022/04/29 03:53:41;;;;;;;8.77;4.30;;;7.00;83.30;;;;;;5035506;28;20025;-46
2022/04/29 03:56:07;;;;;;;9.90;4.45;;;7.00;83.30;;;;;;5053016;28;20094;-44
2022/04/29 03:58:35;;;;;;;9.98;5.38;;;7.10;83.40;;;;;;5034487;28;20034;-46
2022/04/29 04:01:02;;;;;;;10.48;4.18;;;7.10;83.40;;;;;;5035886;28;20033;-46
2022/04/29 04:03:29;;;;;;;7.88;4.45;;;7.20;83.30;;;;;;5034588;28;20036;-45
2022/04/29 04:08:46;;;;;;;11.43;4.50;;;7.30;83.50;;;;;;5033181;28;20036;-47
2022/04/29 04:11:13;;;;;;;7.78;4.30;;;7.30;83.20;;;;;;5034825;28;20021;-45
2022/04/29 04:13:40;;;;;;;8.05;3.35;;;7.30;83.10;;;;;;5033635;28;20017;-44
2022/04/29 04:16:07;;;;;;;6.07;2.97;;;7.30;83.20;;;;;;5017394;28;20037;-45
2022/04/29 04:18:33;;;;;;;10.57;3.22;;;7.40;83.40;;;;;;5033760;28;20040;-46
2022/04/29 04:21:00;;;;;;;6.65;3.22;;;7.40;83.00;;;;;;5037471;28;20033;-46
2022/04/29 04:23:25;;;;;;;10.55;3.13;;;7.40;82.90;;;;;;5053278;28;20057;-45
2022/04/29 04:25:52;;;;;;;4.20;2.40;;;7.40;82.60;;;;;;5032831;28;20439;-45
2022/04/29 04:28:18;;;;;;;6.97;3.00;;;7.40;82.20;;;;;;5052731;28;20094;-45
2022/04/29 04:30:45;;;;;;;7.13;3.00;;;7.50;82.00;;;;;;5049512;28;20109;-45
2022/04/29 04:33:12;;;;;;;6.25;2.88;;;7.50;81.60;;;;;;5035396;28;20053;-46
2022/04/29 04:35:38;;;;;;;6.30;3.20;;;7.50;81.40;;;;;;5050461;28;20424;-45
2022/04/29 04:38:07;;;;;;;9.02;2.85;;;7.50;81.30;;;;;;5052569;28;20037;-44
2022/04/29 04:40:33;;;;;;;5.97;3.90;;;7.60;81.40;;;;;;5053412;28;20043;-47
2022/04/29 04:43:01;;;;;;;7.50;3.28;;;7.60;81.10;;;;;;5035082;28;20037;-46
2022/04/29 04:45:26;;;;;;;11.20;4.32;;;7.60;81.10;;;;;;5035152;28;20047;-46
2022/04/29 04:47:53;;;;;;;6.43;4.00;;;7.60;81.00;;;;;;5053310;28;20021;-44
2022/04/29 04:50:22;;;;;;;8.40;3.50;;;7.60;81.00;;;;;;5054172;28;20423;-45
2022/04/29 04:52:53;;;;;;;10.18;3.00;;;7.70;81.00;;;;;;5052361;28;20464;-47
2022/04/29 04:55:19;;;;;;;7.85;3.30;;;7.70;80.80;;;;;;5052831;28;20071;-45
2022/04/29 04:57:46;;;;;;;6.25;3.13;;;7.70;80.70;;;;;;5052026;28;20113;-45
2022/04/29 05:00:14;;;;;;;11.93;3.25;;;7.80;80.60;;;;;;5030540;28;20044;-45
2022/04/29 05:02:41;;;;;;;5.78;2.97;;;7.90;80.50;;;;;;5046376;28;20033;-46
2022/04/29 05:05:08;;;;;;;5.50;3.00;;;7.90;80.40;;;;;;5050767;28;20029;-47
2022/04/29 05:07:38;;;;;;;7.03;3.30;;;7.90;80.20;;;;;;5036557;28;20052;-44
2022/04/29 05:10:08;;;;;;;8.52;2.78;;;8.00;79.90;;;;;;5052812;28;20025;-45
2022/04/29 05:12:40;;;;;;;5.78;2.28;;;8.00;79.90;;;;;;5050023;28;20029;-45
2022/04/29 05:15:08;;;;;;;6.47;2.45;;;8.10;79.80;;;;;;5066625;28;20118;-46
2022/04/29 05:17:35;;;;;;;8.93;2.53;;;8.10;79.70;;;;;;5051601;28;20120;-46
2022/04/29 05:20:03;;;;;;;15.50;2.85;;;8.20;79.80;;;;;;5050764;28;20032;-44
2022/04/29 05:22:30;;;;;;;7.47;2.50;;;8.20;79.20;;;;;;5044502;28;20036;-47
2022/04/29 05:24:57;;;;;;;4.50;2.75;;;8.30;79.50;;;;;;5034098;28;20540;-44
2022/04/29 05:27:27;;;;;;;6.72;2.75;;;8.30;79.50;;;;;;5040274;28;20056;-45
2022/04/29 05:29:58;;;;;;;7.03;2.55;;;8.30;79.20;;;;;;5032729;28;20053;-44
2022/04/29 05:32:29;;;;;;;6.05;2.65;;;8.40;79.40;;;;;;5048271;28;20476;-45
2022/04/29 05:34:56;;;;;;;8.32;2.85;;;8.40;79.20;;;;;;5032316;28;20026;-45
2022/04/29 05:37:24;;;;;;;8.02;2.60;;;8.40;79.10;;;;;;5015427;28;20471;-45
2022/04/29 05:42:41;;;;;;;9.43;3.08;;;8.50;78.60;;;;;;5035427;28;20432;-45
2022/04/29 05:45:11;;;;;;;3.92;1.90;;;8.60;78.90;;;;;;5047351;28;20124;-47
2022/04/29 05:47:36;;;;;;;5.82;1.88;;;8.60;78.90;;;;;;5048336;28;20417;-48
2022/04/29 05:50:04;;;;;;;5.20;2.13;;;8.70;78.80;;;;;;5028614;28;20042;-46
2022/04/29 05:52:33;;;;;;;6.47;2.15;;;8.70;77.70;;;;;;5007571;28;20077;-47
2022/04/29 05:55:04;;;;;;;3.97;1.80;;;8.80;76.80;;;;;;4994912;28;20041;-47
2022/04/29 05:57:34;;;;;;;5.10;1.90;;;8.80;76.30;;;;;;5012285;28;20366;-44
2022/04/29 06:00:02;;;;;;;5.90;1.80;;;8.90;76.50;;;;;;5041020;28;20355;-45
2022/04/29 06:02:28;;;;;;;5.13;1.80;;;9.00;76.10;;;;;;5015766;28;20037;-45
2022/04/29 06:04:55;;;;;;;6.00;1.92;;;9.00;75.60;;;;;;5012581;28;20029;-47
2022/04/29 06:07:21;;;;;;;8.60;2.35;;;9.10;75.80;;;;;;5010960;28;20026;-46
2022/04/29 06:09:50;;;;;;;7.18;2.30;;;9.10;75.20;;;;;;5011810;28;20030;-45
2022/04/29 06:12:17;;;;;;;5.38;1.73;;;9.30;74.70;;;;;;5010125;28;20112;-45
2022/04/29 06:14:45;;;;;;;4.88;2.00;;;9.20;74.30;;;;;;4996962;28;20088;-45
2022/04/29 06:17:13;;;;;;;11.60;3.05;;;9.10;74.20;;;;;;5011878;28;20320;-45
2022/04/29 06:19:40;;;;;;;4.88;1.80;;;9.10;74.40;;;;;;5011647;28;20105;-45
2022/04/29 06:22:07;;;;;;;6.35;1.92;;;9.10;75.10;;;;;;5010878;28;20034;-48
2022/04/29 06:24:33;;;;;;;5.80;1.80;;;9.20;74.90;;;;;;5011628;28;20604;-48
2022/04/29 06:26:59;;;;;;;4.65;2.60;;;9.10;74.50;;;;;;5011368;28;20455;-47
2022/04/29 06:29:26;;;;;;;5.35;2.83;;;9.00;74.30;;;;;;4996098;28;20034;-46
2022/04/29 06:31:55;;;;;;;5.10;2.40;;;9.00;75.00;;;;;;4997244;28;20026;-44
2022/04/29 06:34:21;;;;;;;5.43;2.10;;;9.10;75.20;;;;;;5012735;28;20032;-45
2022/04/29 06:36:48;;;;;;;5.97;1.80;;;9.10;75.00;;;;;;5012194;28;20375;-47
2022/04/29 06:39:16;;;;;;;5.10;1.90;;;9.20;75.00;;;;;;5012466;28;20398;-46
2022/04/29 06:41:43;;;;;;;5.53;1.73;;;9.20;75.10;;;;;;5012190;28;20073;-44
2022/04/29 06:44:10;;;;;;;6.38;1.65;;;9.40;74.50;;;;;;4993178;28;20030;-45
2022/04/29 06:46:37;;;;;;;7.10;1.70;;;9.40;73.70;;;;;;4988966;28;20121;-45
2022/04/29 06:49:04;;;;;;;3.83;1.40;;;9.50;73.30;;;;;;4993800;28;20041;-45
2022/04/29 06:51:30;;;;;;;7.20;2.28;;;9.60;72.50;;;;;;5013989;28;20049;-47
2022/04/29 06:53:59;;;;;;;5.85;1.45;;;9.60;72.60;;;;;;5011680;28;20032;-44
2022/04/29 06:56:25;;;;;;;9.05;1.83;;;9.70;72.00;;;;;;4997724;28;20091;-45
2022/04/29 06:58:53;;;;;;;10.77;2.47;;;9.70;71.60;;;;;;4998259;28;20030;-45
2022/04/29 07:01:22;;;;;;;6.00;1.58;;;9.80;71.80;;;;;;5009422;28;20052;-45
2022/04/29 07:03:52;;;;;;;10.82;1.98;;;9.90;70.00;;;;;;5014944;28;20021;-46
2022/04/29 07:06:18;;;;;;;6.45;1.60;;;10.00;70.60;;;;;;5015465;28;20308;-48
2022/04/29 07:08:47;;;;;;;2.70;1.30;;;10.10;70.40;;;;;;5014431;28;20029;-44
2022/04/29 07:11:14;;;;;;;11.13;2.78;;;10.20;70.30;;;;;;5014980;28;20030;-45
2022/04/29 07:13:43;;;;;;;9.73;1.75;;;10.30;70.60;;;;;;5014555;28;20029;-45
2022/04/29 07:16:09;;;;;;;3.90;1.55;;;10.40;69.50;;;;;;5016093;28;20036;-47
2022/04/29 07:18:36;;;;;;;9.10;1.48;;;10.40;70.60;;;;;;5015101;28;20034;-47
2022/04/29 07:21:03;;;;;;;7.03;1.60;;;10.60;69.70;;;;;;5014876;28;20054;-44
2022/04/29 07:23:30;;;;;;;6.18;1.48;;;10.60;69.00;;;;;;5014996;28;20462;-45
2022/04/29 07:25:59;;;;;;;5.38;1.70;;;10.50;68.60;;;;;;5001159;28;20052;-45
2022/04/29 07:28:26;;;;;;;2.58;1.20;;;10.50;69.80;;;;;;5022286;28;20148;-45
2022/04/29 07:30:53;;;;;;;9.98;1.70;;;10.50;70.10;;;;;;5020279;28;20044;-46
2022/04/29 07:33:20;;;;;;;3.90;1.20;;;10.50;70.30;;;;;;5014116;28;20045;-45
2022/04/29 07:44:03;;;;;;;10.00;3.63;;;10.30;70.10;;;;;;5015535;28;20148;-45
2022/04/29 07:46:30;;;;;;;10.77;6.20;;;10.30;69.30;;;;;;5013020;28;20140;-46
2022/04/29 07:48:56;;;;;;;87.43;61.85;;;10.40;69.60;;;;;;5012468;28;20687;-45
2022/04/29 07:51:25;;;;;;;18.10;7.95;;;10.30;68.80;;;;;;5012347;28;20053;-45
2022/04/29 07:53:53;;;;;;;9.27;3.45;;;10.40;68.80;;;;;;5007007;28;20038;-46
2022/04/29 07:56:19;;;;;;;8.93;4.55;;;10.40;68.00;;;;;;5014737;28;20030;-46
2022/04/29 07:58:46;;;;;;;9.68;7.05;;;10.50;67.80;;;;;;5013497;28;20061;-45
2022/04/29 08:01:13;;;;;;;4.90;2.10;;;10.60;67.40;;;;;;5018064;28;20092;-45
2022/04/29 08:03:40;;;;;;;9.13;2.50;;;10.70;67.50;;;;;;5018647;28;20390;-44
2022/04/29 08:06:07;;;;;;;10.98;1.90;;;10.80;66.30;;;;;;5013477;28;20034;-45
2022/04/29 08:08:35;;;;;;;3.95;1.70;;;10.80;67.00;;;;;;5012254;28;20029;-47
2022/04/29 08:11:02;;;;;;;3.55;1.27;;;10.80;65.30;;;;;;5006630;28;20052;-47
2022/04/29 08:13:29;;;;;;;4.07;1.65;;;10.60;65.60;;;;;;5013730;28;20030;-49
2022/04/29 08:15:58;;;;;;;3.03;1.20;;;10.70;66.20;;;;;;5014224;28;20037;-44
2022/04/29 08:18:26;;;;;;;6.47;1.53;;;10.80;65.30;;;;;;5012330;28;20482;-45
2022/04/29 08:20:53;;;;;;;4.65;1.65;;;10.70;64.30;;;;;;5029037;28;20048;-45
2022/04/29 08:23:20;;;;;;;11.82;1.90;;;10.80;64.60;;;;;;5013271;28;20026;-46
2022/04/29 08:25:46;;;;;;;6.05;1.70;;;10.80;64.70;;;;;;5014789;28;20427;-44
2022/04/29 08:28:15;;;;;;;5.93;1.70;;;10.90;64.40;;;;;;5013059;28;20096;-46
2022/04/29 08:30:42;;;;;;;2.70;1.23;;;11.00;63.40;;;;;;5013268;28;20018;-46
2022/04/29 08:33:13;;;;;;;4.80;1.50;;;11.10;62.40;;;;;;5013036;28;20356;-45
2022/04/29 08:35:40;;;;;;;6.60;1.30;;;11.10;61.60;;;;;;5014575;28;20025;-47
2022/04/29 08:38:11;;;;;;;7.80;2.05;;;11.20;61.60;;;;;;5013710;28;20074;-49
2022/04/29 08:40:43;;;;;;;4.95;1.30;;;11.40;61.30;;;;;;5013570;28;20046;-46
2022/04/29 08:43:14;;;;;;;4.93;1.52;;;11.50;61.30;;;;;;5044108;28;20467;-44
2022/04/29 08:45:44;;;;;;;8.27;2.97;;;11.50;61.40;;;;;;5013861;28;20037;-45
2022/04/29 08:48:10;;;;;;;6.45;1.40;;;11.30;63.20;;;;;;5012247;28;20049;-46
2022/04/29 08:50:38;;;;;;;6.85;1.70;;;11.30;63.70;;;;;;5013367;28;20046;-47
2022/04/29 08:53:05;;;;;;;10.88;4.82;;;11.40;64.50;;;;;;5044992;28;20083;-45
2022/04/29 08:58:51;;;;;;;6.78;2.30;;;11.40;65.20;;;;;;5009859;28;20091;-48
2022/04/29 09:01:16;;;;;;;8.07;1.70;;;11.10;65.40;;;;;;5009702;28;20072;-50
2022/04/29 09:03:45;;;;;;;3.38;1.65;;;10.90;66.70;;;;;;5003645;28;20053;-49
2022/04/29 09:06:12;;;;;;;7.47;2.53;;;10.80;67.30;;;;;;5013383;28;20026;-45
2022/04/29 09:08:40;;;;;;;6.22;1.90;;;10.60;68.20;;;;;;5013186;28;20068;-47
2022/04/29 09:11:07;;;;;;;5.40;2.45;;;10.50;67.20;;;;;;5012666;28;20054;-45
2022/04/29 09:13:39;;;;;;;4.45;2.13;;;10.40;67.70;;;;;;5013185;28;20091;-46
2022/04/29 09:16:25;;;;;;;6.47;2.20;;;10.50;67.00;;;;;;5042684;28;20042;-49
2022/04/29 09:18:56;;;;;;;5.45;2.38;;;10.60;67.20;;;;;;4996261;28;20137;-45
2022/04/29 09:21:35;;;;;;;6.65;2.90;;;10.60;66.30;;;;;;4997395;28;20057;-49
2022/04/29 09:24:07;;;;;;;7.55;2.55;;;10.80;65.60;;;;;;5012878;28;20462;-47
2022/04/29 09:26:35;;;;;;;4.30;1.80;;;10.90;65.60;;;;;;5012701;28;20036;-48
2022/04/29 09:29:23;;;;;;;6.07;2.63;;;10.90;65.80;;;;;;5010617;28;20637;-45
2022/04/29 09:32:00;;;;;;;7.10;2.20;;;10.90;65.20;;;;;;5015662;28;20034;-46
2022/04/29 09:34:50;;;;;;;4.72;1.50;;;10.90;65.10;;;;;;5012996;28;20514;-45
2022/04/29 09:37:26;;;;;;;4.25;2.20;;;10.90;64.70;;;;;;5031903;28;20038;-45
2022/04/29 09:40:03;;;;;;;5.00;2.25;;;10.80;65.20;;;;;;5013506;28;20467;-46
2022/04/29 09:42:47;;;;;;;4.85;2.05;;;10.60;64.30;;;;;;5012942;28;20037;-45
2022/04/29 09:45:32;;;;;;;7.68;2.05;;;10.80;65.20;;;;;;5012644;28;20034;-45
2022/04/29 09:47:59;;;;;;;4.47;2.03;;;10.80;63.90;;;;;;5012540;28;20354;-46
2022/04/29 09:50:49;;;;;;;6.38;2.33;;;10.80;64.40;;;;;;5012509;28;20092;-47
2022/04/29 09:53:25;;;;;;;5.70;1.83;;;11.10;63.90;;;;;;4997411;28;20037;-47
2022/04/29 09:56:10;;;;;;;3.80;2.13;;;11.20;62.40;;;;;;5011893;28;20467;-45
2022/04/29 09:58:37;;;;;;;4.78;2.45;;;11.30;63.00;;;;;;5010302;28;20041;-46
2022/04/29 10:01:04;;;;;;;5.53;1.75;;;11.40;61.10;;;;;;5011097;28;20038;-46
2022/04/29 10:03:33;;;;;;;3.58;1.40;;;11.40;61.80;;;;;;5015552;28;20018;-48
2022/04/29 10:06:02;;;;;;;5.00;1.60;;;11.50;60.20;;;;;;5008633;28;20041;-44
2022/04/29 10:08:31;;;;;;;5.65;1.40;;;11.50;60.20;;;;;;5010752;28;20030;-45
2022/04/29 10:10:59;;;;;;;2.85;1.45;;;11.80;60.30;;;;;;5012439;28;20026;-46
2022/04/29 10:13:27;;;;;;;7.72;2.10;;;12.20;58.60;;;;;;5013429;28;20048;-45
2022/04/29 10:15:54;;;;;;;4.07;1.60;;;12.40;56.00;;;;;;5012457;28;20533;-47
2022/04/29 10:21:16;;;;;;;5.15;1.45;;;12.60;55.00;;;;;;4997985;28;20049;-45
2022/04/29 10:23:50;;;;;;;3.50;1.70;;;13.20;57.40;;;;;;5011174;28;20045;-51
2022/04/29 10:26:17;;;;;;;5.07;1.60;;;13.40;54.40;;;;;;5043679;28;20041;-48
2022/04/29 10:28:48;;;;;;;3.35;1.50;;;13.40;53.60;;;;;;5011672;28;20034;-45
2022/04/29 10:31:22;;;;;;;3.75;1.75;;;13.40;54.90;;;;;;5014721;28;20092;-50
2022/04/29 10:33:49;;;;;;;5.18;2.22;;;13.50;54.70;;;;;;5015221;28;20174;-48
2022/04/29 10:36:16;;;;;;;5.35;1.88;;;13.80;54.60;;;;;;5015761;28;20046;-45
2022/04/29 10:38:46;;;;;;;4.85;1.60;;;13.90;54.20;;;;;;5015269;28;21854;-50
2022/04/29 10:41:34;;;;;;;3.50;1.35;;;14.10;52.50;;;;;;5015365;28;20037;-45
2022/04/29 10:44:04;;;;;;;5.63;2.28;;;13.80;53.50;;;;;;5014184;28;20026;-49
2022/04/29 10:46:35;;;;;;;;;;;13.50;54.00;;;;;;5016132;28;20033;-47
2022/04/29 10:49:19;;;;;;;4.40;1.55;;;13.80;54.60;;;;;;5015285;28;19920;-50
2022/04/29 10:51:54;;;;;;;4.53;1.20;;;14.00;52.30;;;;;;5027632;28;20049;-51
2022/04/29 10:54:40;;;;;;;4.13;1.25;;;13.80;52.40;;;;;;5034825;28;20029;-49
2022/04/29 10:57:12;;;;;;;5.57;2.10;;;13.90;54.50;;;;;;5034467;28;20033;-46
2022/04/29 11:00:00;;;;;;;4.15;1.45;;;13.80;53.50;;;;;;5017596;28;20096;-47
2022/04/29 11:02:29;;;;;;;3.30;1.65;;;13.40;53.80;;;;;;5036387;28;20029;-45
2022/04/29 11:04:58;;;;;;;3.53;1.50;;;13.40;55.20;;;;;;5034314;28;20486;-47
2022/04/29 11:07:48;;;;;;;5.13;1.35;;;13.20;54.60;;;;;;5035513;28;20117;-46
2022/04/29 11:10:54;;;;;;;3.97;1.50;;;13.10;55.30;;;;;;5035285;28;20099;-46
2022/04/29 11:13:23;;;;;;;5.47;1.60;;;13.00;55.20;;;;;;5034932;28;20109;-45
2022/04/29 11:15:51;;;;;;;6.70;2.27;;;12.90;55.80;;;;;;5034257;28;20163;-47
2022/04/29 11:18:36;;;;;;;5.43;1.85;;;12.70;56.30;;;;;;5034955;28;20025;-48
2022/04/29 11:26:58;;;;;;;5.55;1.60;;;12.60;58.00;;;;;;5035351;28;20036;-46
2022/04/29 11:29:28;;;;;;;6.63;1.60;;;12.70;57.80;;;;;;5028616;28;20335;-46
2022/04/29 11:31:56;;;;;;;5.60;1.88;;;12.60;58.80;;;;;;5032976;28;20037;-46
2022/04/29 11:34:21;;;;;;;4.53;1.40;;;12.50;58.10;;;;;;5034452;28;20037;-45
2022/04/29 11:36:56;;;;;;;7.03;1.60;;;12.50;58.50;;;;;;5034377;28;20041;-46
2022/04/29 11:39:23;;;;;;;3.88;1.50;;;12.50;58.50;;;;;;5032939;28;20041;-47
2022/04/29 11:41:58;;;;;;;4.15;1.77;;;12.60;60.10;;;;;;5033174;28;20389;-46
2022/04/29 11:44:40;;;;;;;5.63;2.20;;;12.70;59.50;;;;;;5034171;28;20029;-47
2022/04/29 11:47:07;;;;;;;3.22;1.52;;;12.50;58.10;;;;;;5034267;28;20033;-45
2022/04/29 11:49:34;;;;;;;2.63;1.30;;;12.50;59.60;;;;;;5029285;28;20030;-47
2022/04/29 11:52:24;;;;;;;6.75;2.50;;;12.50;60.00;;;;;;5039706;28;20053;-45
2022/04/29 11:54:55;;;;;;;2.70;1.65;;;12.70;59.90;;;;;;5052167;28;20028;-45
2022/04/29 11:57:23;;;;;;;4.38;2.45;;;12.50;59.80;;;;;;5052521;28;20040;-45
2022/04/29 11:59:53;;;;;;;5.32;2.40;;;12.40;59.50;;;;;;5039190;28;20045;-46
2022/04/29 12:02:21;;;;;;;;;;;12.20;60.50;;;;;;5047403;28;20052;-46
2022/04/29 12:05:07;;;;;;;6.18;2.17;;;12.40;60.50;;;;;;5067342;28;19909;-45
2022/04/29 12:07:41;;;;;;;4.93;1.88;;;12.80;60.20;;;;;;5052406;28;20067;-45
2022/04/29 12:10:32;;;;;;;3.58;2.00;;;12.80;59.10;;;;;;5053466;28;20053;-48
2022/04/29 12:13:01;;;;;;;5.10;1.90;;;12.80;61.10;;;;;;5051837;28;20462;-44
2022/04/29 12:15:36;;;;;;;4.20;2.33;;;12.80;59.40;;;;;;5035329;28;20037;-47
2022/04/29 12:18:09;;;;;;;6.97;2.63;;;12.70;60.30;;;;;;5051301;28;20029;-45
2022/04/29 12:20:37;;;;;;;3.65;2.00;;;12.70;61.10;;;;;;5054159;28;20385;-45
2022/04/29 12:23:25;;;;;;;5.68;2.20;;;12.60;60.90;;;;;;5052274;28;20025;-45
2022/04/29 12:25:52;;;;;;;5.85;3.15;;;12.30;61.80;;;;;;5051253;28;20052;-45
2022/04/29 12:28:27;;;;;;;6.38;2.95;;;12.10;64.00;;;;;;5051317;28;20032;-45
2022/04/29 12:37:06;;;;;;;8.00;3.47;;;12.00;64.40;;;;;;5053787;28;19963;-48
2022/04/29 12:39:51;;;;;;;7.85;3.20;;;12.10;64.30;;;;;;5049428;28;20108;-48
2022/04/29 12:42:18;;;;;;;3.55;2.15;;;12.00;64.90;;;;;;5065933;28;20029;-45
2022/04/29 12:47:54;;;;;;;4.88;2.42;;;11.90;63.60;;;;;;5041455;28;20037;-46
2022/04/29 12:50:23;;;;;;;10.35;3.22;;;11.80;64.50;;;;;;5047700;28;20033;-45
2022/04/29 12:53:04;;;;;;;6.47;3.25;;;11.70;65.40;;;;;;5053114;28;20159;-46
2022/04/29 12:55:47;;;;;;;6.60;3.58;;;11.60;65.70;;;;;;5041103;28;20045;-49
2022/04/29 12:58:15;;;;;;;10.27;3.30;;;11.50;66.60;;;;;;5024606;28;20033;-46
2022/04/29 13:01:06;;;;;;;7.40;3.47;;;11.60;67.30;;;;;;5029556;28;20041;-45
2022/04/29 13:03:34;;;;;;;5.93;2.60;;;11.40;67.10;;;;;;5023548;28;20025;-45
2022/04/29 13:06:02;;;;;;;8.73;3.42;;;11.30;67.50;;;;;;5026428;28;20434;-45
2022/04/29 13:08:29;;;;;;;7.60;3.88;;;11.10;67.30;;;;;;5023651;28;20461;-49
2022/04/29 13:11:00;;;;;;;7.47;2.88;;;11.20;67.80;;;;;;5023074;28;20080;-45
2022/04/29 13:13:29;;;;;;;5.97;3.28;;;11.30;67.70;;;;;;5032429;28;20055;-47
2022/04/29 13:15:55;;;;;;;6.43;2.72;;;11.20;66.10;;;;;;5034846;28;20100;-45
2022/04/29 13:18:25;;;;;;;7.18;3.90;;;11.30;66.00;;;;;;5033479;28;20033;-46
2022/04/29 13:20:52;;;;;;;7.60;3.55;;;11.40;67.00;;;;;;5026049;28;20038;-45
2022/04/29 13:23:19;;;;;;;6.03;2.72;;;11.40;67.90;;;;;;5024422;28;20033;-46
2022/04/29 13:25:49;;;;;;;9.50;3.30;;;11.30;68.00;;;;;;5033311;28;20030;-46
2022/04/29 13:28:16;;;;;;;8.73;3.92;;;11.10;70.00;;;;;;5021235;28;20022;-47
2022/04/29 13:30:44;;;;;;;9.52;3.97;;;10.70;70.90;;;;;;5030644;28;21559;-47
2022/04/29 13:33:10;;;;;;;6.63;3.33;;;10.50;71.80;;;;;;5032004;28;20071;-47
2022/04/29 13:35:38;;;;;;;6.45;3.47;;;10.40;72.50;;;;;;5015053;28;20052;-45
2022/04/29 13:38:10;;;;;;;8.57;3.58;;;10.40;73.00;;;;;;5031996;28;20034;-47
2022/04/29 13:40:37;;;;;;;8.10;3.60;;;10.30;72.70;;;;;;5048328;28;20041;-45
2022/04/29 13:43:04;;;;;;;6.07;3.40;;;10.40;73.00;;;;;;5046891;28;20403;-46